sensor_id;sensor_type;location;lat;lon;timestamp;pressure;altitude;pressure_sealevel;temperature;humidity
62928;BME280;51070;52.236;-0.892;2023-03-24T00:01:03;98467.44;;;8.32;100.00
62928;BME280;51070;52.236;-0.892;2023-03-24T00:03:30;98467.96;;;8.34;100.00
62928;BME280;51070;52.236;-0.892;2023-03-24T00:06:01;98468.67;;;8.38;100.00
62928;BME280;51070;52.236;-0.892;2023-03-24T00:08:28;98468.02;;;8.43;100.00
62928;BME280;51070;52.236;-0.892;2023-03-24T00:11:10;98465.79;;;8.48;100.00
62928;BME280;51070;52.236;-0.892;2023-03-24T00:13:36;98471.48;;;8.51;100.00
62928;BME280;51070;52.236;-0.892;2023-03-24T00:16:04;98472.54;;;8.52;100.00
62928;BME280;51070;52.236;-0.892;2023-03-24T00:18:30;98473.06;;;8.52;100.00
62928;BME280;51070;52.236;-0.892;2023-03-24T00:20:56;98473.91;;;8.52;100.00
62928;BME280;51070;52.236;-0.892;2023-03-24T00:23:26;98477.52;;;8.50;100.00
62928;BME280;51070;52.236;-0.892;2023-03-24T00:26:07;98479.56;;;8.48;100.00
62928;BME280;51070;52.236;-0.892;2023-03-24T00:28:34;98486.79;;;8.46;100.00
62928;BME280;51070;52.236;-0.892;2023-03-24T00:31:02;98494.36;;;8.45;100.00
62928;BME280;51070;52.236;-0.892;2023-03-24T00:33:29;98495.03;;;8.44;100.00
62928;BME280;51070;52.236;-0.892;2023-03-24T00:36:00;98494.35;;;8.44;100.00
62928;BME280;51070;52.236;-0.892;2023-03-24T00:38:26;98501.41;;;8.44;100.00
62928;BME280;51070;52.236;-0.892;2023-03-24T00:40:52;98501.59;;;8.45;100.00
62928;BME280;51070;52.236;-0.892;2023-03-24T00:43:18;98504.17;;;8.45;100.00
62928;BME280;51070;52.236;-0.892;2023-03-24T00:45:45;98511.40;;;8.45;100.00
62928;BME280;51070;52.236;-0.892;2023-03-24T00:48:15;98507.08;;;8.43;100.00
62928;BME280;51070;52.236;-0.892;2023-03-24T00:50:48;98512.07;;;8.42;100.00
62928;BME280;51070;52.236;-0.892;2023-03-24T00:53:15;98512.05;;;8.39;100.00
62928;BME280;51070;52.236;-0.892;2023-03-24T00:55:45;98514.77;;;8.37;100.00
62928;BME280;51070;52.236;-0.892;2023-03-24T00:58:15;98518.41;;;8.36;100.00
62928;BME280;51070;52.236;-0.892;2023-03-24T01:00:48;98523.23;;;8.36;100.00
62928;BME280;51070;52.236;-0.892;2023-03-24T01:03:14;98526.48;;;8.35;100.00
62928;BME280;51070;52.236;-0.892;2023-03-24T01:05:40;98526.64;;;8.33;100.00
62928;BME280;51070;52.236;-0.892;2023-03-24T01:08:07;98528.34;;;8.32;100.00
62928;BME280;51070;52.236;-0.892;2023-03-24T01:10:38;98530.24;;;8.30;100.00
62928;BME280;51070;52.236;-0.892;2023-03-24T01:13:19;98533.13;;;8.29;100.00
62928;BME280;51070;52.236;-0.892;2023-03-24T01:15:45;98537.08;;;8.28;100.00
62928;BME280;51070;52.236;-0.892;2023-03-24T01:18:11;98541.20;;;8.28;100.00
62928;BME280;51070;52.236;-0.892;2023-03-24T01:20:40;98546.37;;;8.28;100.00
62928;BME280;51070;52.236;-0.892;2023-03-24T01:23:12;98552.22;;;8.28;100.00
62928;BME280;51070;52.236;-0.892;2023-03-24T01:25:39;98553.23;;;8.26;99.92
62928;BME280;51070;52.236;-0.892;2023-03-24T01:28:07;98558.06;;;8.26;99.74
62928;BME280;51070;52.236;-0.892;2023-03-24T01:30:32;98558.05;;;8.24;99.55
62928;BME280;51070;52.236;-0.892;2023-03-24T01:32:58;98556.98;;;8.21;99.31
62928;BME280;51070;52.236;-0.892;2023-03-24T01:35:25;98560.55;;;8.17;99.47
62928;BME280;51070;52.236;-0.892;2023-03-24T01:37:51;98557.11;;;8.13;99.24
62928;BME280;51070;52.236;-0.892;2023-03-24T01:40:26;98555.88;;;8.11;99.26
62928;BME280;51070;52.236;-0.892;2023-03-24T01:42:53;98558.27;;;8.08;98.87
62928;BME280;51070;52.236;-0.892;2023-03-24T01:45:50;98559.10;;;8.04;98.80
62928;BME280;51070;52.236;-0.892;2023-03-24T01:48:26;98563.73;;;8.01;98.64
62928;BME280;51070;52.236;-0.892;2023-03-24T01:51:02;98561.98;;;7.99;98.64
62928;BME280;51070;52.236;-0.892;2023-03-24T01:53:30;98572.98;;;7.98;98.34
62928;BME280;51070;52.236;-0.892;2023-03-24T01:55:56;98575.70;;;7.93;98.00
62928;BME280;51070;52.236;-0.892;2023-03-24T01:58:26;98575.31;;;7.90;98.02
62928;BME280;51070;52.236;-0.892;2023-03-24T02:00:52;98573.77;;;7.87;97.93
62928;BME280;51070;52.236;-0.892;2023-03-24T02:03:20;98576.14;;;7.85;98.14
62928;BME280;51070;52.236;-0.892;2023-03-24T02:05:49;98573.88;;;7.82;98.22
62928;BME280;51070;52.236;-0.892;2023-03-24T02:10:41;98582.09;;;7.78;98.16
62928;BME280;51070;52.236;-0.892;2023-03-24T02:13:08;98586.21;;;7.76;98.07
62928;BME280;51070;52.236;-0.892;2023-03-24T02:15:41;98593.59;;;7.76;98.17
62928;BME280;51070;52.236;-0.892;2023-03-24T02:18:17;98595.80;;;7.74;98.55
62928;BME280;51070;52.236;-0.892;2023-03-24T02:31:54;98606.05;;;7.65;99.16
62928;BME280;51070;52.236;-0.892;2023-03-24T02:34:54;98608.77;;;7.64;99.02
62928;BME280;51070;52.236;-0.892;2023-03-24T02:40:28;98611.50;;;7.61;99.16
62928;BME280;51070;52.236;-0.892;2023-03-24T02:54:40;98625.52;;;7.54;99.72
62928;BME280;51070;52.236;-0.892;2023-03-24T02:57:21;98628.92;;;7.52;99.88
62928;BME280;51070;52.236;-0.892;2023-03-24T02:59:53;98633.73;;;7.52;99.96
62928;BME280;51070;52.236;-0.892;2023-03-24T03:02:32;98635.80;;;7.51;99.95
62928;BME280;51070;52.236;-0.892;2023-03-24T03:05:06;98639.58;;;7.52;99.99
62928;BME280;51070;52.236;-0.892;2023-03-24T03:07:38;98641.13;;;7.52;99.80
62928;BME280;51070;52.236;-0.892;2023-03-24T03:10:18;98639.91;;;7.50;99.87
62928;BME280;51070;52.236;-0.892;2023-03-24T03:12:49;98637.46;;;7.47;99.94
62928;BME280;51070;52.236;-0.892;2023-03-24T03:15:31;98644.84;;;7.45;100.00
62928;BME280;51070;52.236;-0.892;2023-03-24T03:18:07;98644.63;;;7.42;99.91
62928;BME280;51070;52.236;-0.892;2023-03-24T03:20:38;98646.85;;;7.41;100.00
62928;BME280;51070;52.236;-0.892;2023-03-24T03:23:19;98644.42;;;7.39;100.00
62928;BME280;51070;52.236;-0.892;2023-03-24T03:25:51;98643.55;;;7.37;100.00
62928;BME280;51070;52.236;-0.892;2023-03-24T03:28:22;98640.96;;;7.37;100.00
62928;BME280;51070;52.236;-0.892;2023-03-24T03:30:52;98642.66;;;7.36;100.00
62928;BME280;51070;52.236;-0.892;2023-03-24T03:33:22;98648.83;;;7.35;100.00
62928;BME280;51070;52.236;-0.892;2023-03-24T03:36:13;98651.42;;;7.35;100.00
62928;BME280;51070;52.236;-0.892;2023-03-24T03:41:31;98653.29;;;7.35;100.00
62928;BME280;51070;52.236;-0.892;2023-03-24T03:43:56;98655.18;;;7.33;100.00
62928;BME280;51070;52.236;-0.892;2023-03-24T03:46:22;98654.45;;;7.31;100.00
62928;BME280;51070;52.236;-0.892;2023-03-24T03:48:48;98654.08;;;7.27;100.00
62928;BME280;51070;52.236;-0.892;2023-03-24T03:51:14;98657.30;;;7.24;100.00
62928;BME280;51070;52.236;-0.892;2023-03-24T03:53:55;98658.65;;;7.22;100.00
62928;BME280;51070;52.236;-0.892;2023-03-24T03:56:25;98656.73;;;7.20;100.00
62928;BME280;51070;52.236;-0.892;2023-03-24T03:58:52;98661.01;;;7.19;100.00
62928;BME280;51070;52.236;-0.892;2023-03-24T04:01:21;98656.55;;;7.18;100.00
62928;BME280;51070;52.236;-0.892;2023-03-24T04:07:21;98662.85;;;7.15;100.00
62928;BME280;51070;52.236;-0.892;2023-03-24T04:15:54;98671.70;;;7.08;100.00
62928;BME280;51070;52.236;-0.892;2023-03-24T04:26:56;98672.80;;;7.02;100.00
62928;BME280;51070;52.236;-0.892;2023-03-24T04:34:51;98678.63;;;7.00;100.00
62928;BME280;51070;52.236;-0.892;2023-03-24T04:37:31;98683.73;;;6.96;100.00
62928;BME280;51070;52.236;-0.892;2023-03-24T04:40:06;98684.54;;;6.94;100.00
62928;BME280;51070;52.236;-0.892;2023-03-24T04:42:56;98686.91;;;6.90;100.00
62928;BME280;51070;52.236;-0.892;2023-03-24T04:45:21;98686.16;;;6.86;100.00
62928;BME280;51070;52.236;-0.892;2023-03-24T04:47:53;98692.11;;;6.83;100.00
62928;BME280;51070;52.236;-0.892;2023-03-24T04:50:41;98688.64;;;6.81;100.00
62928;BME280;51070;52.236;-0.892;2023-03-24T04:53:08;98695.35;;;6.81;100.00
62928;BME280;51070;52.236;-0.892;2023-03-24T04:58:19;98697.91;;;6.80;100.00
62928;BME280;51070;52.236;-0.892;2023-03-24T05:00:45;98708.03;;;6.79;100.00
62928;BME280;51070;52.236;-0.892;2023-03-24T05:03:12;98709.06;;;6.79;100.00
62928;BME280;51070;52.236;-0.892;2023-03-24T05:05:45;98714.00;;;6.77;100.00
62928;BME280;51070;52.236;-0.892;2023-03-24T05:08:11;98720.66;;;6.74;100.00
62928;BME280;51070;52.236;-0.892;2023-03-24T05:10:37;98724.75;;;6.72;100.00
62928;BME280;51070;52.236;-0.892;2023-03-24T05:13:03;98727.67;;;6.73;100.00
62928;BME280;51070;52.236;-0.892;2023-03-24T05:15:29;98723.89;;;6.72;100.00
62928;BME280;51070;52.236;-0.892;2023-03-24T05:17:55;98723.54;;;6.72;100.00
62928;BME280;51070;52.236;-0.892;2023-03-24T05:20:22;98724.71;;;6.71;100.00
62928;BME280;51070;52.236;-0.892;2023-03-24T05:22:47;98727.44;;;6.68;100.00
62928;BME280;51070;52.236;-0.892;2023-03-24T05:25:14;98732.20;;;6.67;100.00
62928;BME280;51070;52.236;-0.892;2023-03-24T05:27:40;98729.59;;;6.64;100.00
62928;BME280;51070;52.236;-0.892;2023-03-24T05:30:07;98733.02;;;6.63;100.00
62928;BME280;51070;52.236;-0.892;2023-03-24T05:32:33;98734.86;;;6.61;100.00
62928;BME280;51070;52.236;-0.892;2023-03-24T05:34:58;98737.09;;;6.61;100.00
62928;BME280;51070;52.236;-0.892;2023-03-24T05:37:23;98739.48;;;6.60;100.00
62928;BME280;51070;52.236;-0.892;2023-03-24T05:39:49;98741.89;;;6.60;100.00
62928;BME280;51070;52.236;-0.892;2023-03-24T05:42:16;98745.98;;;6.59;100.00
62928;BME280;51070;52.236;-0.892;2023-03-24T05:44:42;98747.35;;;6.58;100.00
62928;BME280;51070;52.236;-0.892;2023-03-24T05:47:08;98748.19;;;6.57;100.00
62928;BME280;51070;52.236;-0.892;2023-03-24T05:49:34;98751.80;;;6.57;100.00
62928;BME280;51070;52.236;-0.892;2023-03-24T05:52:00;98746.79;;;6.56;100.00
62928;BME280;51070;52.236;-0.892;2023-03-24T05:54:26;98752.26;;;6.55;99.95
62928;BME280;51070;52.236;-0.892;2023-03-24T05:56:52;98752.09;;;6.55;100.00
62928;BME280;51070;52.236;-0.892;2023-03-24T05:59:17;98746.06;;;6.54;99.93
62928;BME280;51070;52.236;-0.892;2023-03-24T06:01:42;98745.20;;;6.53;99.97
62928;BME280;51070;52.236;-0.892;2023-03-24T06:04:08;98748.30;;;6.53;100.00
62928;BME280;51070;52.236;-0.892;2023-03-24T06:06:33;98752.93;;;6.53;99.98
62928;BME280;51070;52.236;-0.892;2023-03-24T06:08:59;98760.13;;;6.54;99.87
62928;BME280;51070;52.236;-0.892;2023-03-24T06:11:28;98764.45;;;6.55;99.88
62928;BME280;51070;52.236;-0.892;2023-03-24T06:13:54;98770.67;;;6.57;99.92
62928;BME280;51070;52.236;-0.892;2023-03-24T06:16:28;98776.02;;;6.58;99.55
62928;BME280;51070;52.236;-0.892;2023-03-24T06:18:54;98780.81;;;6.59;99.46
62928;BME280;51070;52.236;-0.892;2023-03-24T06:21:20;98782.54;;;6.59;99.65
62928;BME280;51070;52.236;-0.892;2023-03-24T06:23:46;98785.98;;;6.60;99.32
62928;BME280;51070;52.236;-0.892;2023-03-24T06:26:12;98783.59;;;6.60;99.32
62928;BME280;51070;52.236;-0.892;2023-03-24T06:28:38;98784.65;;;6.62;99.34
62928;BME280;51070;52.236;-0.892;2023-03-24T06:31:09;98777.45;;;6.62;98.99
62928;BME280;51070;52.236;-0.892;2023-03-24T06:33:42;98774.69;;;6.61;98.68
62928;BME280;51070;52.236;-0.892;2023-03-24T06:36:09;98770.52;;;6.59;98.75
62928;BME280;51070;52.236;-0.892;2023-03-24T06:38:34;98774.14;;;6.60;98.77
62928;BME280;51070;52.236;-0.892;2023-03-24T06:41:01;98769.02;;;6.61;98.55
62928;BME280;51070;52.236;-0.892;2023-03-24T06:43:26;98770.25;;;6.62;98.42
62928;BME280;51070;52.236;-0.892;2023-03-24T06:45:52;98774.73;;;6.65;98.34
62928;BME280;51070;52.236;-0.892;2023-03-24T06:48:18;98774.27;;;6.67;98.35
62928;BME280;51070;52.236;-0.892;2023-03-24T06:50:43;98774.82;;;6.70;98.27
62928;BME280;51070;52.236;-0.892;2023-03-24T06:53:09;98779.70;;;6.73;98.01
62928;BME280;51070;52.236;-0.892;2023-03-24T06:55:34;98777.86;;;6.77;97.82
62928;BME280;51070;52.236;-0.892;2023-03-24T06:58:00;98782.73;;;6.80;97.52
62928;BME280;51070;52.236;-0.892;2023-03-24T07:00:26;98788.45;;;6.84;97.54
62928;BME280;51070;52.236;-0.892;2023-03-24T07:02:53;98786.81;;;6.89;97.30
62928;BME280;51070;52.236;-0.892;2023-03-24T07:05:20;98793.25;;;6.94;97.04
62928;BME280;51070;52.236;-0.892;2023-03-24T07:07:46;98788.17;;;6.99;96.81
62928;BME280;51070;52.236;-0.892;2023-03-24T07:10:13;98789.42;;;7.02;96.62
62928;BME280;51070;52.236;-0.892;2023-03-24T07:12:39;98786.91;;;7.05;96.52
62928;BME280;51070;52.236;-0.892;2023-03-24T07:15:05;98787.27;;;7.08;96.39
62928;BME280;51070;52.236;-0.892;2023-03-24T07:17:32;98777.56;;;7.12;96.63
62928;BME280;51070;52.236;-0.892;2023-03-24T07:19:58;98781.73;;;7.16;96.37
62928;BME280;51070;52.236;-0.892;2023-03-24T07:22:23;98783.88;;;7.22;96.37
62928;BME280;51070;52.236;-0.892;2023-03-24T07:24:49;98785.49;;;7.26;96.07
62928;BME280;51070;52.236;-0.892;2023-03-24T07:27:15;98785.55;;;7.30;96.04
62928;BME280;51070;52.236;-0.892;2023-03-24T07:29:40;98780.97;;;7.35;95.96
62928;BME280;51070;52.236;-0.892;2023-03-24T07:32:05;98783.08;;;7.37;95.97
62928;BME280;51070;52.236;-0.892;2023-03-24T07:34:34;98788.49;;;7.43;96.20
62928;BME280;51070;52.236;-0.892;2023-03-24T07:37:03;98792.02;;;7.50;96.24
62928;BME280;51070;52.236;-0.892;2023-03-24T07:39:29;98791.23;;;7.55;96.25
62928;BME280;51070;52.236;-0.892;2023-03-24T07:41:55;98796.28;;;7.60;96.13
62928;BME280;51070;52.236;-0.892;2023-03-24T07:44:21;98805.66;;;7.67;96.07
62928;BME280;51070;52.236;-0.892;2023-03-24T07:46:46;98810.06;;;7.76;95.88
62928;BME280;51070;52.236;-0.892;2023-03-24T07:49:12;98813.76;;;7.83;95.47
62928;BME280;51070;52.236;-0.892;2023-03-24T07:51:39;98814.73;;;7.91;95.55
62928;BME280;51070;52.236;-0.892;2023-03-24T07:54:04;98816.36;;;7.98;95.30
62928;BME280;51070;52.236;-0.892;2023-03-24T07:56:30;98820.95;;;8.07;94.96
62928;BME280;51070;52.236;-0.892;2023-03-24T07:58:56;98819.67;;;8.16;94.93
62928;BME280;51070;52.236;-0.892;2023-03-24T08:01:22;98812.06;;;8.28;94.48
62928;BME280;51070;52.236;-0.892;2023-03-24T08:03:47;98810.78;;;8.34;94.69
62928;BME280;51070;52.236;-0.892;2023-03-24T08:06:13;98813.77;;;8.40;94.41
62928;BME280;51070;52.236;-0.892;2023-03-24T08:08:39;98814.86;;;8.46;93.94
62928;BME280;51070;52.236;-0.892;2023-03-24T08:11:05;98809.42;;;8.53;93.73
62928;BME280;51070;52.236;-0.892;2023-03-24T08:13:30;98811.58;;;8.62;93.72
62928;BME280;51070;52.236;-0.892;2023-03-24T08:15:56;98802.16;;;8.67;93.17
62928;BME280;51070;52.236;-0.892;2023-03-24T08:18:22;98791.19;;;8.72;92.93
62928;BME280;51070;52.236;-0.892;2023-03-24T08:20:50;98789.17;;;8.77;92.85
62928;BME280;51070;52.236;-0.892;2023-03-24T08:23:18;98797.13;;;8.82;91.91
62928;BME280;51070;52.236;-0.892;2023-03-24T08:25:44;98792.02;;;8.90;91.68
62928;BME280;51070;52.236;-0.892;2023-03-24T08:28:11;98795.16;;;8.94;90.64
62928;BME280;51070;52.236;-0.892;2023-03-24T08:30:37;98789.16;;;8.98;89.94
62928;BME280;51070;52.236;-0.892;2023-03-24T08:33:03;98793.52;;;9.06;90.36
62928;BME280;51070;52.236;-0.892;2023-03-24T08:35:31;98790.14;;;9.14;90.01
62928;BME280;51070;52.236;-0.892;2023-03-24T08:37:57;98795.02;;;9.22;90.03
62928;BME280;51070;52.236;-0.892;2023-03-24T08:40:27;98787.83;;;9.29;89.44
62928;BME280;51070;52.236;-0.892;2023-03-24T08:42:55;98787.21;;;9.38;89.23
62928;BME280;51070;52.236;-0.892;2023-03-24T08:45:23;98796.75;;;9.49;88.16
62928;BME280;51070;52.236;-0.892;2023-03-24T08:47:52;98791.45;;;9.58;87.62
62928;BME280;51070;52.236;-0.892;2023-03-24T08:50:20;98805.66;;;9.70;86.88
62928;BME280;51070;52.236;-0.892;2023-03-24T08:52:47;98799.02;;;9.83;86.36
62928;BME280;51070;52.236;-0.892;2023-03-24T08:55:16;98795.34;;;10.15;84.94
62928;BME280;51070;52.236;-0.892;2023-03-24T08:57:42;98800.02;;;11.68;78.05
62928;BME280;51070;52.236;-0.892;2023-03-24T09:00:09;98804.85;;;13.43;73.23
62928;BME280;51070;52.236;-0.892;2023-03-24T09:02:45;98806.64;;;14.72;64.99
62928;BME280;51070;52.236;-0.892;2023-03-24T09:05:12;98803.41;;;15.72;61.06
62928;BME280;51070;52.236;-0.892;2023-03-24T09:07:39;98797.08;;;15.93;58.79
62928;BME280;51070;52.236;-0.892;2023-03-24T09:10:06;98800.55;;;16.75;57.69
62928;BME280;51070;52.236;-0.892;2023-03-24T09:12:33;98797.39;;;17.47;56.37
62928;BME280;51070;52.236;-0.892;2023-03-24T09:14:58;98792.55;;;18.45;54.74
62928;BME280;51070;52.236;-0.892;2023-03-24T09:17:23;98798.02;;;19.05;51.72
62928;BME280;51070;52.236;-0.892;2023-03-24T09:19:49;98797.64;;;19.27;50.87
62928;BME280;51070;52.236;-0.892;2023-03-24T09:22:15;98798.59;;;20.20;48.53
62928;BME280;51070;52.236;-0.892;2023-03-24T09:24:40;98802.29;;;20.10;46.36
62928;BME280;51070;52.236;-0.892;2023-03-24T09:27:05;98802.35;;;19.54;46.62
62928;BME280;51070;52.236;-0.892;2023-03-24T09:29:31;98797.58;;;19.85;48.10
62928;BME280;51070;52.236;-0.892;2023-03-24T09:31:56;98797.75;;;20.38;45.47
62928;BME280;51070;52.236;-0.892;2023-03-24T09:34:23;98805.80;;;21.01;44.98
62928;BME280;51070;52.236;-0.892;2023-03-24T09:36:49;98805.67;;;20.91;41.67
62928;BME280;51070;52.236;-0.892;2023-03-24T09:39:15;98812.36;;;20.91;41.92
62928;BME280;51070;52.236;-0.892;2023-03-24T09:41:43;98809.56;;;20.95;41.33
62928;BME280;51070;52.236;-0.892;2023-03-24T09:47:04;98807.96;;;20.82;41.12
62928;BME280;51070;52.236;-0.892;2023-03-24T09:49:37;98804.83;;;21.21;41.82
62928;BME280;51070;52.236;-0.892;2023-03-24T09:52:08;98806.46;;;21.58;40.80
62928;BME280;51070;52.236;-0.892;2023-03-24T09:54:48;98802.34;;;21.79;39.69
62928;BME280;51070;52.236;-0.892;2023-03-24T09:57:30;98803.65;;;22.25;39.93
62928;BME280;51070;52.236;-0.892;2023-03-24T09:59:58;98801.70;;;22.56;37.50
62928;BME280;51070;52.236;-0.892;2023-03-24T10:02:27;98805.23;;;22.01;37.12
62928;BME280;51070;52.236;-0.892;2023-03-24T10:04:54;98810.98;;;21.08;39.09
62928;BME280;51070;52.236;-0.892;2023-03-24T10:07:24;98816.45;;;20.76;39.97
62928;BME280;51070;52.236;-0.892;2023-03-24T10:09:56;98815.52;;;19.73;40.87
62928;BME280;51070;52.236;-0.892;2023-03-24T10:20:42;98814.04;;;18.81;43.57
62928;BME280;51070;52.236;-0.892;2023-03-24T10:31:32;98815.09;;;19.45;40.87
62928;BME280;51070;52.236;-0.892;2023-03-24T10:33:59;98821.63;;;19.22;41.05
62928;BME280;51070;52.236;-0.892;2023-03-24T10:36:25;98809.58;;;19.16;42.53
62928;BME280;51070;52.236;-0.892;2023-03-24T10:38:52;98810.95;;;18.44;42.25
62928;BME280;51070;52.236;-0.892;2023-03-24T10:41:24;98804.67;;;18.67;42.93
62928;BME280;51070;52.236;-0.892;2023-03-24T10:43:51;98805.21;;;18.55;43.09
62928;BME280;51070;52.236;-0.892;2023-03-24T10:46:24;98804.60;;;18.74;42.42
62928;BME280;51070;52.236;-0.892;2023-03-24T10:49:05;98808.79;;;18.52;42.24
62928;BME280;51070;52.236;-0.892;2023-03-24T10:51:32;98811.33;;;18.13;43.30
62928;BME280;51070;52.236;-0.892;2023-03-24T10:54:31;98798.16;;;17.64;43.81
62928;BME280;51070;52.236;-0.892;2023-03-24T11:00:15;98803.13;;;16.70;46.00
62928;BME280;51070;52.236;-0.892;2023-03-24T11:02:40;98799.23;;;16.40;46.60
62928;BME280;51070;52.236;-0.892;2023-03-24T11:05:20;98800.15;;;16.05;47.79
62928;BME280;51070;52.236;-0.892;2023-03-24T11:08:13;98793.17;;;16.38;47.40
62928;BME280;51070;52.236;-0.892;2023-03-24T11:10:47;98801.44;;;16.67;47.38
62928;BME280;51070;52.236;-0.892;2023-03-24T11:13:18;98791.64;;;16.61;46.58
62928;BME280;51070;52.236;-0.892;2023-03-24T11:15:53;98793.02;;;16.29;47.71
62928;BME280;51070;52.236;-0.892;2023-03-24T11:18:19;98793.10;;;15.83;48.71
62928;BME280;51070;52.236;-0.892;2023-03-24T11:20:51;98783.92;;;15.42;50.01
62928;BME280;51070;52.236;-0.892;2023-03-24T11:23:20;98786.02;;;15.22;51.24
62928;BME280;51070;52.236;-0.892;2023-03-24T11:26:15;98799.80;;;14.99;50.84
62928;BME280;51070;52.236;-0.892;2023-03-24T11:28:49;98793.20;;;15.09;52.86
62928;BME280;51070;52.236;-0.892;2023-03-24T11:31:22;98789.05;;;15.38;54.50
62928;BME280;51070;52.236;-0.892;2023-03-24T11:33:55;98784.66;;;15.30;53.10
62928;BME280;51070;52.236;-0.892;2023-03-24T11:39:09;98776.23;;;15.53;52.13
62928;BME280;51070;52.236;-0.892;2023-03-24T11:41:37;98780.85;;;15.86;50.57
62928;BME280;51070;52.236;-0.892;2023-03-24T11:46:41;98778.01;;;16.14;48.94
62928;BME280;51070;52.236;-0.892;2023-03-24T11:49:08;98783.43;;;16.21;48.57
62928;BME280;51070;52.236;-0.892;2023-03-24T11:51:37;98773.63;;;16.07;48.32
62928;BME280;51070;52.236;-0.892;2023-03-24T11:54:08;98773.28;;;15.81;48.24
62928;BME280;51070;52.236;-0.892;2023-03-24T11:56:52;98762.52;;;15.62;48.61
62928;BME280;51070;52.236;-0.892;2023-03-24T12:01:56;98758.96;;;15.74;47.78
62928;BME280;51070;52.236;-0.892;2023-03-24T12:07:28;98757.39;;;16.08;47.31
62928;BME280;51070;52.236;-0.892;2023-03-24T12:13:12;98744.38;;;15.73;47.72
62928;BME280;51070;52.236;-0.892;2023-03-24T12:15:56;98749.02;;;15.57;47.62
62928;BME280;51070;52.236;-0.892;2023-03-24T12:18:28;98741.06;;;15.35;48.52
62928;BME280;51070;52.236;-0.892;2023-03-24T12:21:09;98736.88;;;15.35;48.42
62928;BME280;51070;52.236;-0.892;2023-03-24T12:23:57;98731.32;;;15.44;48.60
62928;BME280;51070;52.236;-0.892;2023-03-24T12:26:27;98733.20;;;15.66;47.86
62928;BME280;51070;52.236;-0.892;2023-03-24T12:37:22;98732.34;;;15.45;47.84
62928;BME280;51070;52.236;-0.892;2023-03-24T12:42:46;98753.98;;;14.61;51.62
62928;BME280;51070;52.236;-0.892;2023-03-24T12:48:18;98825.84;;;13.49;60.67
62928;BME280;51070;52.236;-0.892;2023-03-24T12:51:07;98818.85;;;12.66;62.14
62928;BME280;51070;52.236;-0.892;2023-03-24T12:56:16;98809.98;;;11.38;66.41
62928;BME280;51070;52.236;-0.892;2023-03-24T12:58:49;98796.87;;;10.98;67.94
62928;BME280;51070;52.236;-0.892;2023-03-24T13:01:36;98774.91;;;11.10;69.56
62928;BME280;51070;52.236;-0.892;2023-03-24T13:04:19;98759.77;;;11.59;69.42
62928;BME280;51070;52.236;-0.892;2023-03-24T13:06:52;98759.72;;;11.83;69.71
62928;BME280;51070;52.236;-0.892;2023-03-24T13:12:16;98763.42;;;12.09;69.59
62928;BME280;51070;52.236;-0.892;2023-03-24T13:14:48;98753.41;;;12.01;69.69
62928;BME280;51070;52.236;-0.892;2023-03-24T13:17:20;98740.06;;;12.03;69.91
62928;BME280;51070;52.236;-0.892;2023-03-24T13:19:48;98730.75;;;12.25;70.09
62928;BME280;51070;52.236;-0.892;2023-03-24T13:22:17;98724.23;;;12.44;69.79
62928;BME280;51070;52.236;-0.892;2023-03-24T13:24:45;98729.48;;;12.62;70.27
62928;BME280;51070;52.236;-0.892;2023-03-24T13:30:01;98708.00;;;13.00;69.33
62928;BME280;51070;52.236;-0.892;2023-03-24T13:32:47;98698.27;;;13.02;67.77
62928;BME280;51070;52.236;-0.892;2023-03-24T13:35:27;98698.71;;;12.92;69.10
62928;BME280;51070;52.236;-0.892;2023-03-24T13:38:05;98700.77;;;12.95;69.51
62928;BME280;51070;52.236;-0.892;2023-03-24T13:40:38;98699.34;;;12.98;71.02
62928;BME280;51070;52.236;-0.892;2023-03-24T13:43:16;98693.36;;;13.08;70.87
62928;BME280;51070;52.236;-0.892;2023-03-24T13:45:48;98688.14;;;13.11;69.57
62928;BME280;51070;52.236;-0.892;2023-03-24T13:48:31;98689.36;;;13.06;68.04
62928;BME280;51070;52.236;-0.892;2023-03-24T13:51:02;98689.69;;;13.11;67.90
62928;BME280;51070;52.236;-0.892;2023-03-24T13:53:32;98683.15;;;13.25;68.08
62928;BME280;51070;52.236;-0.892;2023-03-24T13:55:59;98683.10;;;13.44;67.93
62928;BME280;51070;52.236;-0.892;2023-03-24T13:59:05;98677.86;;;13.62;67.42
62928;BME280;51070;52.236;-0.892;2023-03-24T14:07:34;98673.61;;;13.39;63.29
62928;BME280;51070;52.236;-0.892;2023-03-24T14:15:26;98680.96;;;12.97;63.24
62928;BME280;51070;52.236;-0.892;2023-03-24T14:17:54;98678.63;;;13.08;64.43
62928;BME280;51070;52.236;-0.892;2023-03-24T14:20:35;98678.66;;;13.22;64.88
62928;BME280;51070;52.236;-0.892;2023-03-24T14:23:03;98681.05;;;13.26;64.47
62928;BME280;51070;52.236;-0.892;2023-03-24T14:25:31;98672.55;;;13.41;64.86
62928;BME280;51070;52.236;-0.892;2023-03-24T14:28:16;98686.31;;;13.50;62.61
62928;BME280;51070;52.236;-0.892;2023-03-24T14:31:08;98674.48;;;13.67;62.23
62928;BME280;51070;52.236;-0.892;2023-03-24T14:41:52;98672.54;;;13.41;61.48
62928;BME280;51070;52.236;-0.892;2023-03-24T14:49:50;98673.58;;;13.28;63.71
62928;BME280;51070;52.236;-0.892;2023-03-24T14:52:39;98669.49;;;13.35;63.69
62928;BME280;51070;52.236;-0.892;2023-03-24T14:55:13;98669.55;;;13.29;63.88
62928;BME280;51070;52.236;-0.892;2023-03-24T14:57:46;98669.23;;;13.27;63.56
62928;BME280;51070;52.236;-0.892;2023-03-24T15:00:18;98659.25;;;13.23;62.81
62928;BME280;51070;52.236;-0.892;2023-03-24T15:02:54;98661.52;;;13.20;60.80
62928;BME280;51070;52.236;-0.892;2023-03-24T15:05:28;98655.87;;;13.13;60.88
62928;BME280;51070;52.236;-0.892;2023-03-24T15:10:59;98650.82;;;13.15;60.63
62928;BME280;51070;52.236;-0.892;2023-03-24T15:13:48;98644.27;;;13.10;59.82
62928;BME280;51070;52.236;-0.892;2023-03-24T15:16:23;98646.53;;;13.08;60.11
62928;BME280;51070;52.236;-0.892;2023-03-24T15:18:55;98647.75;;;13.07;60.91
62928;BME280;51070;52.236;-0.892;2023-03-24T15:23:48;98639.39;;;13.14;61.49
62928;BME280;51070;52.236;-0.892;2023-03-24T15:26:15;98638.21;;;13.07;61.46
62928;BME280;51070;52.236;-0.892;2023-03-24T15:28:42;98637.20;;;13.05;61.37
62928;BME280;51070;52.236;-0.892;2023-03-24T15:31:09;98638.17;;;13.13;61.85
62928;BME280;51070;52.236;-0.892;2023-03-24T15:33:41;98637.88;;;13.25;62.17
62928;BME280;51070;52.236;-0.892;2023-03-24T15:36:20;98645.64;;;13.28;61.52